sensor_id;sensor_type;location;lat;lon;timestamp;temperature;humidity
21834;DHT22;11079;51.092;3.458;2023-06-26T00:02:57;21.20;99.90
21834;DHT22;11079;51.092;3.458;2023-06-26T00:05:23;21.20;99.90
21834;DHT22;11079;51.092;3.458;2023-06-26T00:07:49;21.10;99.90
21834;DHT22;11079;51.092;3.458;2023-06-26T00:10:27;21.00;99.90
21834;DHT22;11079;51.092;3.458;2023-06-26T00:13:37;21.10;99.90
21834;DHT22;11079;51.092;3.458;2023-06-26T00:16:44;21.00;99.90
21834;DHT22;11079;51.092;3.458;2023-06-26T00:19:10;21.10;99.90
21834;DHT22;11079;51.092;3.458;2023-06-26T00:21:44;21.10;99.90
21834;DHT22;11079;51.092;3.458;2023-06-26T00:24:26;21.00;99.90
21834;DHT22;11079;51.092;3.458;2023-06-26T00:26:53;20.90;99.90
21834;DHT22;11079;51.092;3.458;2023-06-26T00:29:19;20.80;99.90
21834;DHT22;11079;51.092;3.458;2023-06-26T00:31:45;20.90;99.90
21834;DHT22;11079;51.092;3.458;2023-06-26T00:34:11;20.90;99.90
21834;DHT22;11079;51.092;3.458;2023-06-26T00:36:40;20.90;99.90
21834;DHT22;11079;51.092;3.458;2023-06-26T00:39:09;20.90;99.90
21834;DHT22;11079;51.092;3.458;2023-06-26T00:41:37;20.80;99.90
21834;DHT22;11079;51.092;3.458;2023-06-26T00:44:09;20.80;99.90
21834;DHT22;11079;51.092;3.458;2023-06-26T00:47:00;20.90;99.90
21834;DHT22;11079;51.092;3.458;2023-06-26T00:49:39;20.90;99.90
21834;DHT22;11079;51.092;3.458;2023-06-26T00:52:21;20.90;99.90
21834;DHT22;11079;51.092;3.458;2023-06-26T00:57:48;20.90;99.90
21834;DHT22;11079;51.092;3.458;2023-06-26T01:00:22;21.00;99.90
21834;DHT22;11079;51.092;3.458;2023-06-26T01:03:11;20.90;99.90
21834;DHT22;11079;51.092;3.458;2023-06-26T01:05:38;20.80;99.90
21834;DHT22;11079;51.092;3.458;2023-06-26T01:08:32;20.80;99.90
21834;DHT22;11079;51.092;3.458;2023-06-26T01:11:22;20.80;99.90
21834;DHT22;11079;51.092;3.458;2023-06-26T01:13:51;20.80;99.90
21834;DHT22;11079;51.092;3.458;2023-06-26T01:16:18;20.60;99.90
21834;DHT22;11079;51.092;3.458;2023-06-26T01:19:11;20.60;99.90
21834;DHT22;11079;51.092;3.458;2023-06-26T01:21:43;20.60;99.90
21834;DHT22;11079;51.092;3.458;2023-06-26T01:24:23;20.50;99.90
21834;DHT22;11079;51.092;3.458;2023-06-26T01:27:10;20.40;99.90
21834;DHT22;11079;51.092;3.458;2023-06-26T01:30:00;20.30;99.90
21834;DHT22;11079;51.092;3.458;2023-06-26T01:32:54;20.20;99.90
21834;DHT22;11079;51.092;3.458;2023-06-26T01:35:45;20.30;99.90
21834;DHT22;11079;51.092;3.458;2023-06-26T01:38:22;20.10;99.90
21834;DHT22;11079;51.092;3.458;2023-06-26T01:41:31;20.10;99.90
21834;DHT22;11079;51.092;3.458;2023-06-26T01:44:24;20.10;99.90
21834;DHT22;11079;51.092;3.458;2023-06-26T01:47:14;19.90;99.90
21834;DHT22;11079;51.092;3.458;2023-06-26T01:50:17;19.90;99.90
21834;DHT22;11079;51.092;3.458;2023-06-26T01:53:19;19.90;99.90
21834;DHT22;11079;51.092;3.458;2023-06-26T01:56:13;19.70;99.90
21834;DHT22;11079;51.092;3.458;2023-06-26T01:59:14;19.60;99.90
21834;DHT22;11079;51.092;3.458;2023-06-26T02:02:27;19.50;99.90
21834;DHT22;11079;51.092;3.458;2023-06-26T02:05:19;19.40;99.90
21834;DHT22;11079;51.092;3.458;2023-06-26T02:07:45;19.30;99.90
21834;DHT22;11079;51.092;3.458;2023-06-26T02:10:18;19.30;99.90
21834;DHT22;11079;51.092;3.458;2023-06-26T02:12:45;19.20;99.90
21834;DHT22;11079;51.092;3.458;2023-06-26T02:15:14;19.00;99.90
21834;DHT22;11079;51.092;3.458;2023-06-26T02:17:58;19.10;99.90
21834;DHT22;11079;51.092;3.458;2023-06-26T02:20:33;19.00;99.90
21834;DHT22;11079;51.092;3.458;2023-06-26T02:23:05;19.00;99.90
21834;DHT22;11079;51.092;3.458;2023-06-26T02:25:46;18.90;99.90
21834;DHT22;11079;51.092;3.458;2023-06-26T02:28:11;18.90;99.90
21834;DHT22;11079;51.092;3.458;2023-06-26T02:31:11;18.80;99.90
21834;DHT22;11079;51.092;3.458;2023-06-26T02:34:17;18.70;99.90
21834;DHT22;11079;51.092;3.458;2023-06-26T02:36:48;18.70;99.90
21834;DHT22;11079;51.092;3.458;2023-06-26T02:39:41;18.70;99.90
21834;DHT22;11079;51.092;3.458;2023-06-26T02:42:07;18.70;99.90
21834;DHT22;11079;51.092;3.458;2023-06-26T02:44:48;18.60;99.90
21834;DHT22;11079;51.092;3.458;2023-06-26T02:47:17;18.40;99.90
21834;DHT22;11079;51.092;3.458;2023-06-26T02:50:07;18.40;99.90
21834;DHT22;11079;51.092;3.458;2023-06-26T02:52:56;18.40;99.90
21834;DHT22;11079;51.092;3.458;2023-06-26T02:56:13;18.40;99.90
21834;DHT22;11079;51.092;3.458;2023-06-26T02:59:15;18.30;99.90
21834;DHT22;11079;51.092;3.458;2023-06-26T03:02:00;18.20;99.90
21834;DHT22;11079;51.092;3.458;2023-06-26T03:04:46;18.20;99.90
21834;DHT22;11079;51.092;3.458;2023-06-26T03:07:35;18.20;99.90
21834;DHT22;11079;51.092;3.458;2023-06-26T03:10:37;18.20;99.90
21834;DHT22;11079;51.092;3.458;2023-06-26T03:13:26;18.00;99.90
21834;DHT22;11079;51.092;3.458;2023-06-26T03:16:56;17.90;99.90
21834;DHT22;11079;51.092;3.458;2023-06-26T03:20:10;17.90;99.90
21834;DHT22;11079;51.092;3.458;2023-06-26T03:22:56;17.90;99.90
21834;DHT22;11079;51.092;3.458;2023-06-26T03:25:23;17.90;99.90
21834;DHT22;11079;51.092;3.458;2023-06-26T03:28:04;17.80;99.90
21834;DHT22;11079;51.092;3.458;2023-06-26T03:30:33;17.80;99.90
21834;DHT22;11079;51.092;3.458;2023-06-26T03:33:02;17.80;99.90
21834;DHT22;11079;51.092;3.458;2023-06-26T03:35:51;17.70;99.90
21834;DHT22;11079;51.092;3.458;2023-06-26T03:38:42;17.60;99.90
21834;DHT22;11079;51.092;3.458;2023-06-26T03:41:54;17.70;99.90
21834;DHT22;11079;51.092;3.458;2023-06-26T03:44:23;17.80;99.90
21834;DHT22;11079;51.092;3.458;2023-06-26T03:47:04;17.80;99.90
21834;DHT22;11079;51.092;3.458;2023-06-26T03:49:37;17.80;99.90
21834;DHT22;11079;51.092;3.458;2023-06-26T03:52:09;17.70;99.90
21834;DHT22;11079;51.092;3.458;2023-06-26T03:54:40;17.60;99.90
21834;DHT22;11079;51.092;3.458;2023-06-26T03:57:29;17.60;99.90
21834;DHT22;11079;51.092;3.458;2023-06-26T04:00:30;17.60;99.90
21834;DHT22;11079;51.092;3.458;2023-06-26T04:03:04;17.70;99.90
21834;DHT22;11079;51.092;3.458;2023-06-26T04:05:53;17.60;99.90
21834;DHT22;11079;51.092;3.458;2023-06-26T04:08:26;17.70;99.90
21834;DHT22;11079;51.092;3.458;2023-06-26T04:11:12;17.80;99.90
21834;DHT22;11079;51.092;3.458;2023-06-26T04:13:45;17.90;99.90
21834;DHT22;11079;51.092;3.458;2023-06-26T04:16:11;17.80;99.90
21834;DHT22;11079;51.092;3.458;2023-06-26T04:18:58;17.70;99.90
21834;DHT22;11079;51.092;3.458;2023-06-26T04:22:29;17.80;99.90
21834;DHT22;11079;51.092;3.458;2023-06-26T04:25:01;17.70;99.90
21834;DHT22;11079;51.092;3.458;2023-06-26T04:27:44;17.70;99.90
21834;DHT22;11079;51.092;3.458;2023-06-26T04:30:27;17.80;99.90
21834;DHT22;11079;51.092;3.458;2023-06-26T04:33:40;17.80;99.90
21834;DHT22;11079;51.092;3.458;2023-06-26T04:36:33;18.00;99.90
21834;DHT22;11079;51.092;3.458;2023-06-26T04:39:30;17.90;99.90
21834;DHT22;11079;51.092;3.458;2023-06-26T04:42:22;17.90;99.90
21834;DHT22;11079;51.092;3.458;2023-06-26T04:44:59;18.20;99.90
21834;DHT22;11079;51.092;3.458;2023-06-26T04:47:53;18.50;99.90
21834;DHT22;11079;51.092;3.458;2023-06-26T04:54:26;18.70;99.90
21834;DHT22;11079;51.092;3.458;2023-06-26T04:57:18;19.20;99.90
21834;DHT22;11079;51.092;3.458;2023-06-26T05:00:24;19.90;99.90
21834;DHT22;11079;51.092;3.458;2023-06-26T05:03:04;20.70;99.90
21834;DHT22;11079;51.092;3.458;2023-06-26T05:05:29;21.20;99.90
21834;DHT22;11079;51.092;3.458;2023-06-26T05:07:56;21.50;99.90
21834;DHT22;11079;51.092;3.458;2023-06-26T05:10:22;21.70;99.90
21834;DHT22;11079;51.092;3.458;2023-06-26T05:12:48;22.10;99.90
21834;DHT22;11079;51.092;3.458;2023-06-26T05:15:44;22.40;99.90
21834;DHT22;11079;51.092;3.458;2023-06-26T05:18:09;22.30;99.90
21834;DHT22;11079;51.092;3.458;2023-06-26T05:20:42;22.20;99.90
21834;DHT22;11079;51.092;3.458;2023-06-26T05:23:11;22.80;99.90
21834;DHT22;11079;51.092;3.458;2023-06-26T05:25:44;23.20;99.90
21834;DHT22;11079;51.092;3.458;2023-06-26T05:28:14;23.50;99.90
21834;DHT22;11079;51.092;3.458;2023-06-26T05:30:46;23.90;99.90
21834;DHT22;11079;51.092;3.458;2023-06-26T05:33:36;24.20;99.90
21834;DHT22;11079;51.092;3.458;2023-06-26T05:36:07;25.20;99.90
21834;DHT22;11079;51.092;3.458;2023-06-26T05:38:34;25.30;99.90
21834;DHT22;11079;51.092;3.458;2023-06-26T05:41:00;25.40;99.90
21834;DHT22;11079;51.092;3.458;2023-06-26T05:43:27;25.40;99.90
21834;DHT22;11079;51.092;3.458;2023-06-26T05:45:53;25.50;99.90
21834;DHT22;11079;51.092;3.458;2023-06-26T05:48:19;24.90;99.90
21834;DHT22;11079;51.092;3.458;2023-06-26T05:51:06;25.00;99.90
21834;DHT22;11079;51.092;3.458;2023-06-26T05:53:33;25.20;99.90
21834;DHT22;11079;51.092;3.458;2023-06-26T05:56:14;25.10;99.90
21834;DHT22;11079;51.092;3.458;2023-06-26T05:58:42;24.90;99.90
21834;DHT22;11079;51.092;3.458;2023-06-26T06:01:30;25.30;99.90
21834;DHT22;11079;51.092;3.458;2023-06-26T06:04:51;24.90;99.90
21834;DHT22;11079;51.092;3.458;2023-06-26T06:07:17;24.80;99.90
21834;DHT22;11079;51.092;3.458;2023-06-26T06:09:42;24.60;99.90
21834;DHT22;11079;51.092;3.458;2023-06-26T06:12:15;24.40;99.90
21834;DHT22;11079;51.092;3.458;2023-06-26T06:14:55;24.40;99.90
21834;DHT22;11079;51.092;3.458;2023-06-26T06:17:37;23.80;99.90
21834;DHT22;11079;51.092;3.458;2023-06-26T06:23:49;24.80;99.90
21834;DHT22;11079;51.092;3.458;2023-06-26T06:29:05;24.90;99.90
21834;DHT22;11079;51.092;3.458;2023-06-26T06:31:31;25.50;99.90
21834;DHT22;11079;51.092;3.458;2023-06-26T06:34:04;26.00;99.90
21834;DHT22;11079;51.092;3.458;2023-06-26T06:36:31;26.10;99.90
21834;DHT22;11079;51.092;3.458;2023-06-26T06:39:00;26.60;99.90
21834;DHT22;11079;51.092;3.458;2023-06-26T06:41:26;26.70;99.90
21834;DHT22;11079;51.092;3.458;2023-06-26T06:43:51;27.50;99.90
21834;DHT22;11079;51.092;3.458;2023-06-26T06:46:17;27.90;99.90
21834;DHT22;11079;51.092;3.458;2023-06-26T06:48:42;27.30;99.90
21834;DHT22;11079;51.092;3.458;2023-06-26T06:51:08;26.70;99.90
21834;DHT22;11079;51.092;3.458;2023-06-26T06:53:34;26.10;99.90
21834;DHT22;11079;51.092;3.458;2023-06-26T06:55:59;26.50;99.90
21834;DHT22;11079;51.092;3.458;2023-06-26T06:58:25;26.10;99.90
21834;DHT22;11079;51.092;3.458;2023-06-26T07:00:50;26.40;99.90
21834;DHT22;11079;51.092;3.458;2023-06-26T07:03:17;27.00;99.90
21834;DHT22;11079;51.092;3.458;2023-06-26T07:05:43;28.20;99.90
21834;DHT22;11079;51.092;3.458;2023-06-26T07:08:09;28.00;99.90
21834;DHT22;11079;51.092;3.458;2023-06-26T07:10:35;27.80;99.90
21834;DHT22;11079;51.092;3.458;2023-06-26T07:13:01;27.50;99.90
21834;DHT22;11079;51.092;3.458;2023-06-26T07:15:27;27.80;99.90
21834;DHT22;11079;51.092;3.458;2023-06-26T07:17:53;28.00;99.90
21834;DHT22;11079;51.092;3.458;2023-06-26T07:20:18;28.20;99.90
21834;DHT22;11079;51.092;3.458;2023-06-26T07:22:44;28.20;99.90
21834;DHT22;11079;51.092;3.458;2023-06-26T07:25:11;27.80;99.90
21834;DHT22;11079;51.092;3.458;2023-06-26T07:27:41;27.20;99.90
21834;DHT22;11079;51.092;3.458;2023-06-26T07:30:08;27.20;99.90
21834;DHT22;11079;51.092;3.458;2023-06-26T07:32:39;28.30;99.90
21834;DHT22;11079;51.092;3.458;2023-06-26T07:35:06;29.50;99.90
21834;DHT22;11079;51.092;3.458;2023-06-26T07:37:32;29.50;99.90
21834;DHT22;11079;51.092;3.458;2023-06-26T07:39:57;29.60;99.90
21834;DHT22;11079;51.092;3.458;2023-06-26T07:42:26;28.80;99.90
21834;DHT22;11079;51.092;3.458;2023-06-26T07:44:52;28.50;99.90
21834;DHT22;11079;51.092;3.458;2023-06-26T07:47:17;28.70;99.90
21834;DHT22;11079;51.092;3.458;2023-06-26T07:49:43;28.60;99.90
21834;DHT22;11079;51.092;3.458;2023-06-26T07:52:08;29.10;99.90
21834;DHT22;11079;51.092;3.458;2023-06-26T07:54:36;29.10;99.90
21834;DHT22;11079;51.092;3.458;2023-06-26T07:57:03;30.20;99.90
21834;DHT22;11079;51.092;3.458;2023-06-26T07:59:32;30.40;99.90
21834;DHT22;11079;51.092;3.458;2023-06-26T08:01:58;30.00;99.90
21834;DHT22;11079;51.092;3.458;2023-06-26T08:04:26;29.90;99.90
21834;DHT22;11079;51.092;3.458;2023-06-26T08:06:54;29.60;99.90
21834;DHT22;11079;51.092;3.458;2023-06-26T08:09:21;30.20;99.90
21834;DHT22;11079;51.092;3.458;2023-06-26T08:11:48;30.40;99.70
21834;DHT22;11079;51.092;3.458;2023-06-26T08:14:15;28.50;99.90
21834;DHT22;11079;51.092;3.458;2023-06-26T08:16:41;28.70;99.90
21834;DHT22;11079;51.092;3.458;2023-06-26T08:19:13;29.40;99.90
21834;DHT22;11079;51.092;3.458;2023-06-26T08:22:05;30.40;99.90
21834;DHT22;11079;51.092;3.458;2023-06-26T08:24:31;30.80;99.80
21834;DHT22;11079;51.092;3.458;2023-06-26T08:26:57;30.50;99.70
21834;DHT22;11079;51.092;3.458;2023-06-26T08:29:23;32.00;97.70
21834;DHT22;11079;51.092;3.458;2023-06-26T08:31:49;32.50;95.40
21834;DHT22;11079;51.092;3.458;2023-06-26T08:34:14;32.00;94.50
21834;DHT22;11079;51.092;3.458;2023-06-26T08:36:40;31.80;93.80
21834;DHT22;11079;51.092;3.458;2023-06-26T08:39:38;31.80;93.10
21834;DHT22;11079;51.092;3.458;2023-06-26T08:42:23;30.90;93.90
21834;DHT22;11079;51.092;3.458;2023-06-26T08:44:49;31.20;94.30
21834;DHT22;11079;51.092;3.458;2023-06-26T08:47:16;30.80;93.90
21834;DHT22;11079;51.092;3.458;2023-06-26T08:49:47;30.60;95.90
21834;DHT22;11079;51.092;3.458;2023-06-26T08:52:50;30.10;95.00
21834;DHT22;11079;51.092;3.458;2023-06-26T08:55:43;30.10;93.90
21834;DHT22;11079;51.092;3.458;2023-06-26T08:58:10;30.40;94.90
21834;DHT22;11079;51.092;3.458;2023-06-26T09:01:04;31.60;94.20
21834;DHT22;11079;51.092;3.458;2023-06-26T09:04:10;31.00;94.10
21834;DHT22;11079;51.092;3.458;2023-06-26T09:07:25;32.30;92.20
21834;DHT22;11079;51.092;3.458;2023-06-26T09:10:08;33.80;92.80
21834;DHT22;11079;51.092;3.458;2023-06-26T09:12:57;31.90;91.20
21834;DHT22;11079;51.092;3.458;2023-06-26T09:16:06;32.30;88.70
21834;DHT22;11079;51.092;3.458;2023-06-26T09:18:59;33.50;86.90
21834;DHT22;11079;51.092;3.458;2023-06-26T09:21:26;34.70;81.70
21834;DHT22;11079;51.092;3.458;2023-06-26T09:23:53;34.80;80.50
21834;DHT22;11079;51.092;3.458;2023-06-26T09:27:04;33.20;83.20
21834;DHT22;11079;51.092;3.458;2023-06-26T09:29:37;32.80;86.40
21834;DHT22;11079;51.092;3.458;2023-06-26T09:32:08;33.20;82.40
21834;DHT22;11079;51.092;3.458;2023-06-26T09:34:45;32.20;83.00
21834;DHT22;11079;51.092;3.458;2023-06-26T09:37:36;29.50;86.20
21834;DHT22;11079;51.092;3.458;2023-06-26T09:40:16;29.50;90.70
21834;DHT22;11079;51.092;3.458;2023-06-26T09:43:09;31.40;89.40
21834;DHT22;11079;51.092;3.458;2023-06-26T09:45:36;30.00;90.40
21834;DHT22;11079;51.092;3.458;2023-06-26T09:48:08;29.10;91.60
21834;DHT22;11079;51.092;3.458;2023-06-26T09:50:56;29.20;92.50
21834;DHT22;11079;51.092;3.458;2023-06-26T09:53:26;29.80;91.20
21834;DHT22;11079;51.092;3.458;2023-06-26T09:56:17;31.20;90.40
21834;DHT22;11079;51.092;3.458;2023-06-26T09:59:29;31.20;88.80
21834;DHT22;11079;51.092;3.458;2023-06-26T10:02:11;30.00;88.30
21834;DHT22;11079;51.092;3.458;2023-06-26T10:04:49;28.90;92.20
21834;DHT22;11079;51.092;3.458;2023-06-26T10:07:17;28.90;91.20
21834;DHT22;11079;51.092;3.458;2023-06-26T10:09:47;28.30;91.80
21834;DHT22;11079;51.092;3.458;2023-06-26T10:12:38;29.30;91.20
21834;DHT22;11079;51.092;3.458;2023-06-26T10:15:28;30.30;87.00
21834;DHT22;11079;51.092;3.458;2023-06-26T10:18:06;31.20;84.60
21834;DHT22;11079;51.092;3.458;2023-06-26T10:20:42;31.80;81.70
21834;DHT22;11079;51.092;3.458;2023-06-26T10:23:58;32.50;79.40
21834;DHT22;11079;51.092;3.458;2023-06-26T10:27:16;32.70;79.90
21834;DHT22;11079;51.092;3.458;2023-06-26T10:30:24;34.90;77.00
21834;DHT22;11079;51.092;3.458;2023-06-26T10:36:36;34.80;73.30
21834;DHT22;11079;51.092;3.458;2023-06-26T10:39:47;33.90;70.50
21834;DHT22;11079;51.092;3.458;2023-06-26T10:42:19;33.30;71.00
21834;DHT22;11079;51.092;3.458;2023-06-26T10:45:08;32.70;74.20
21834;DHT22;11079;51.092;3.458;2023-06-26T10:47:51;31.90;74.80
21834;DHT22;11079;51.092;3.458;2023-06-26T10:50:33;30.40;77.80
21834;DHT22;11079;51.092;3.458;2023-06-26T10:53:22;30.20;80.80
21834;DHT22;11079;51.092;3.458;2023-06-26T10:56:00;31.60;78.80
21834;DHT22;11079;51.092;3.458;2023-06-26T10:58:52;32.50;73.60
21834;DHT22;11079;51.092;3.458;2023-06-26T11:01:23;31.10;75.20
21834;DHT22;11079;51.092;3.458;2023-06-26T11:04:08;29.40;76.00
21834;DHT22;11079;51.092;3.458;2023-06-26T11:07:14;31.10;80.30
21834;DHT22;11079;51.092;3.458;2023-06-26T11:09:57;32.40;77.70
21834;DHT22;11079;51.092;3.458;2023-06-26T11:12:39;33.00;77.40
21834;DHT22;11079;51.092;3.458;2023-06-26T11:15:16;32.70;75.30
21834;DHT22;11079;51.092;3.458;2023-06-26T11:17:48;32.20;72.90
21834;DHT22;11079;51.092;3.458;2023-06-26T11:20:15;32.40;71.80
21834;DHT22;11079;51.092;3.458;2023-06-26T11:22:42;32.50;70.90
21834;DHT22;11079;51.092;3.458;2023-06-26T11:25:10;33.00;74.20
21834;DHT22;11079;51.092;3.458;2023-06-26T11:27:41;33.50;74.20
21834;DHT22;11079;51.092;3.458;2023-06-26T11:30:11;33.20;73.50
21834;DHT22;11079;51.092;3.458;2023-06-26T11:32:47;32.80;74.00
21834;DHT22;11079;51.092;3.458;2023-06-26T11:35:13;31.10;76.60
21834;DHT22;11079;51.092;3.458;2023-06-26T11:37:42;30.10;78.30
21834;DHT22;11079;51.092;3.458;2023-06-26T11:40:21;29.30;75.70
21834;DHT22;11079;51.092;3.458;2023-06-26T11:42:47;30.60;74.30
21834;DHT22;11079;51.092;3.458;2023-06-26T11:45:12;31.10;72.60
21834;DHT22;11079;51.092;3.458;2023-06-26T11:47:39;31.40;70.70
21834;DHT22;11079;51.092;3.458;2023-06-26T11:50:05;31.80;72.70
21834;DHT22;11079;51.092;3.458;2023-06-26T11:52:33;32.20;69.00
21834;DHT22;11079;51.092;3.458;2023-06-26T11:54:58;32.00;69.50
21834;DHT22;11079;51.092;3.458;2023-06-26T11:57:24;31.30;72.70
21834;DHT22;11079;51.092;3.458;2023-06-26T11:59:51;30.80;77.30
21834;DHT22;11079;51.092;3.458;2023-06-26T12:02:17;30.90;77.70
21834;DHT22;11079;51.092;3.458;2023-06-26T12:04:44;31.60;79.40
21834;DHT22;11079;51.092;3.458;2023-06-26T12:07:10;32.10;77.20
21834;DHT22;11079;51.092;3.458;2023-06-26T12:09:43;32.00;77.90
21834;DHT22;11079;51.092;3.458;2023-06-26T12:12:11;32.00;77.40
21834;DHT22;11079;51.092;3.458;2023-06-26T12:14:37;32.30;77.20
21834;DHT22;11079;51.092;3.458;2023-06-26T12:17:10;33.00;77.10
21834;DHT22;11079;51.092;3.458;2023-06-26T12:19:42;33.10;75.50
21834;DHT22;11079;51.092;3.458;2023-06-26T12:22:17;32.70;73.50
21834;DHT22;11079;51.092;3.458;2023-06-26T12:24:44;32.10;76.80
21834;DHT22;11079;51.092;3.458;2023-06-26T12:27:14;31.50;75.40
21834;DHT22;11079;51.092;3.458;2023-06-26T12:29:50;31.60;76.80
21834;DHT22;11079;51.092;3.458;2023-06-26T12:32:16;31.00;78.80
21834;DHT22;11079;51.092;3.458;2023-06-26T12:34:42;29.80;77.90
21834;DHT22;11079;51.092;3.458;2023-06-26T12:37:15;29.30;77.50
21834;DHT22;11079;51.092;3.458;2023-06-26T12:39:50;28.90;78.20
21834;DHT22;11079;51.092;3.458;2023-06-26T12:42:27;29.70;76.90
21834;DHT22;11079;51.092;3.458;2023-06-26T12:44:54;29.90;77.60
21834;DHT22;11079;51.092;3.458;2023-06-26T12:47:27;29.40;78.30
21834;DHT22;11079;51.092;3.458;2023-06-26T12:50:07;29.30;80.00
21834;DHT22;11079;51.092;3.458;2023-06-26T12:52:33;30.10;82.40
21834;DHT22;11079;51.092;3.458;2023-06-26T12:54:59;30.60;76.60
21834;DHT22;11079;51.092;3.458;2023-06-26T12:57:25;30.90;72.70
21834;DHT22;11079;51.092;3.458;2023-06-26T12:59:51;31.30;73.90
21834;DHT22;11079;51.092;3.458;2023-06-26T13:02:17;31.50;71.70
21834;DHT22;11079;51.092;3.458;2023-06-26T13:04:45;30.90;72.10
21834;DHT22;11079;51.092;3.458;2023-06-26T13:07:11;31.80;69.40
21834;DHT22;11079;51.092;3.458;2023-06-26T13:09:38;32.50;67.80
21834;DHT22;11079;51.092;3.458;2023-06-26T13:12:06;32.50;65.20
21834;DHT22;11079;51.092;3.458;2023-06-26T13:14:33;32.50;67.20
21834;DHT22;11079;51.092;3.458;2023-06-26T13:17:00;32.10;67.60
21834;DHT22;11079;51.092;3.458;2023-06-26T13:19:26;32.50;62.70
21834;DHT22;11079;51.092;3.458;2023-06-26T13:21:51;32.60;64.20
21834;DHT22;11079;51.092;3.458;2023-06-26T13:24:17;32.50;66.70
21834;DHT22;11079;51.092;3.458;2023-06-26T13:26:43;33.20;64.50
21834;DHT22;11079;51.092;3.458;2023-06-26T13:29:08;33.30;67.10
21834;DHT22;11079;51.092;3.458;2023-06-26T13:31:34;32.50;64.70
21834;DHT22;11079;51.092;3.458;2023-06-26T13:34:01;32.40;68.20
21834;DHT22;11079;51.092;3.458;2023-06-26T13:36:29;32.60;64.80
21834;DHT22;11079;51.092;3.458;2023-06-26T13:38:56;31.90;60.70
21834;DHT22;11079;51.092;3.458;2023-06-26T13:41:26;31.10;66.00
21834;DHT22;11079;51.092;3.458;2023-06-26T13:43:53;30.60;71.20
21834;DHT22;11079;51.092;3.458;2023-06-26T13:46:19;31.10;69.30
21834;DHT22;11079;51.092;3.458;2023-06-26T13:48:45;30.30;70.60
21834;DHT22;11079;51.092;3.458;2023-06-26T13:51:16;29.70;75.40
21834;DHT22;11079;51.092;3.458;2023-06-26T13:53:45;29.40;78.30
21834;DHT22;11079;51.092;3.458;2023-06-26T13:56:12;28.90;80.00
21834;DHT22;11079;51.092;3.458;2023-06-26T13:58:47;28.80;80.90
21834;DHT22;11079;51.092;3.458;2023-06-26T14:01:22;29.00;83.60
21834;DHT22;11079;51.092;3.458;2023-06-26T14:03:51;28.30;82.20
21834;DHT22;11079;51.092;3.458;2023-06-26T14:06:18;28.20;86.30
21834;DHT22;11079;51.092;3.458;2023-06-26T14:08:46;28.10;85.30
21834;DHT22;11079;51.092;3.458;2023-06-26T14:11:12;28.00;88.90
21834;DHT22;11079;51.092;3.458;2023-06-26T14:13:38;28.00;90.00
21834;DHT22;11079;51.092;3.458;2023-06-26T14:16:04;27.80;90.40
21834;DHT22;11079;51.092;3.458;2023-06-26T14:18:30;27.70;90.20
21834;DHT22;11079;51.092;3.458;2023-06-26T14:20:56;27.50;90.20
21834;DHT22;11079;51.092;3.458;2023-06-26T14:23:22;27.60;90.70
21834;DHT22;11079;51.092;3.458;2023-06-26T14:25:48;27.60;90.40
21834;DHT22;11079;51.092;3.458;2023-06-26T14:28:13;27.60;90.60
21834;DHT22;11079;51.092;3.458;2023-06-26T14:30:39;27.60;90.50
21834;DHT22;11079;51.092;3.458;2023-06-26T14:33:05;27.50;91.20
21834;DHT22;11079;51.092;3.458;2023-06-26T14:35:34;27.30;91.40
21834;DHT22;11079;51.092;3.458;2023-06-26T14:38:13;27.20;90.80
21834;DHT22;11079;51.092;3.458;2023-06-26T14:40:40;27.10;91.90
21834;DHT22;11079;51.092;3.458;2023-06-26T14:43:06;26.60;92.00
21834;DHT22;11079;51.092;3.458;2023-06-26T14:45:39;26.70;93.60
21834;DHT22;11079;51.092;3.458;2023-06-26T14:48:25;26.90;92.90
21834;DHT22;11079;51.092;3.458;2023-06-26T14:50:51;26.70;92.10
21834;DHT22;11079;51.092;3.458;2023-06-26T14:53:18;26.50;94.00
21834;DHT22;11079;51.092;3.458;2023-06-26T14:55:44;26.40;93.20
21834;DHT22;11079;51.092;3.458;2023-06-26T14:58:18;26.10;93.00
21834;DHT22;11079;51.092;3.458;2023-06-26T15:00:44;26.10;94.20
21834;DHT22;11079;51.092;3.458;2023-06-26T15:03:10;26.10;95.00
21834;DHT22;11079;51.092;3.458;2023-06-26T15:05:38;26.20;93.90
21834;DHT22;11079;51.092;3.458;2023-06-26T15:08:05;26.30;93.30
21834;DHT22;11079;51.092;3.458;2023-06-26T15:10:31;26.30;93.90
21834;DHT22;11079;51.092;3.458;2023-06-26T15:13:04;26.10;93.60
21834;DHT22;11079;51.092;3.458;2023-06-26T15:15:30;26.10;93.20
21834;DHT22;11079;51.092;3.458;2023-06-26T15:18:00;25.50;93.70
21834;DHT22;11079;51.092;3.458;2023-06-26T15:20:26;25.60;96.70
21834;DHT22;11079;51.092;3.458;2023-06-26T15:22:51;25.70;96.60
21834;DHT22;11079;51.092;3.458;2023-06-26T15:25:17;25.50;96.50
21834;DHT22;11079;51.092;3.458;2023-06-26T15:27:42;24.90;95.60
21834;DHT22;11079;51.092;3.458;2023-06-26T15:30:09;24.90;96.60
21834;DHT22;11079;51.092;3.458;2023-06-26T15:32:35;25.10;98.20
21834;DHT22;11079;51.092;3.458;2023-06-26T15:35:01;25.10;98.60
21834;DHT22;11079;51.092;3.458;2023-06-26T15:37:27;25.10;99.70
21834;DHT22;11079;51.092;3.458;2023-06-26T15:39:52;25.10;99.90
21834;DHT22;11079;51.092;3.458;2023-06-26T15:42:18;24.70;99.90
21834;DHT22;11079;51.092;3.458;2023-06-26T15:44:43;24.70;99.90
21834;DHT22;11079;51.092;3.458;2023-06-26T15:47:09;24.80;99.90
21834;DHT22;11079;51.092;3.458;2023-06-26T15:49:34;24.80;99.90
21834;DHT22;11079;51.092;3.458;2023-06-26T15:52:00;24.90;99.90
21834;DHT22;11079;51.092;3.458;2023-06-26T15:54:25;25.00;99.90
21834;DHT22;11079;51.092;3.458;2023-06-26T15:56:51;24.80;99.90
21834;DHT22;11079;51.092;3.458;2023-06-26T15:59:17;24.80;99.90
21834;DHT22;11079;51.092;3.458;2023-06-26T16:01:44;24.60;99.90
21834;DHT22;11079;51.092;3.458;2023-06-26T16:04:11;24.70;99.90
21834;DHT22;11079;51.092;3.458;2023-06-26T16:06:37;24.70;99.90
21834;DHT22;11079;51.092;3.458;2023-06-26T16:09:03;24.70;99.90
21834;DHT22;11079;51.092;3.458;2023-06-26T16:11:29;24.50;99.90
21834;DHT22;11079;51.092;3.458;2023-06-26T16:13:54;24.20;99.90
21834;DHT22;11079;51.092;3.458;2023-06-26T16:16:20;24.30;99.90
21834;DHT22;11079;51.092;3.458;2023-06-26T16:18:46;24.50;99.90
21834;DHT22;11079;51.092;3.458;2023-06-26T16:21:12;24.30;99.90
21834;DHT22;11079;51.092;3.458;2023-06-26T16:23:37;24.20;99.90
21834;DHT22;11079;51.092;3.458;2023-06-26T16:26:03;24.30;99.90
21834;DHT22;11079;51.092;3.458;2023-06-26T16:28:29;24.30;99.90
21834;DHT22;11079;51.092;3.458;2023-06-26T16:30:54;24.10;99.90
21834;DHT22;11079;51.092;3.458;2023-06-26T16:33:20;23.70;99.90
21834;DHT22;11079;51.092;3.458;2023-06-26T16:35:45;23.80;99.90
21834;DHT22;11079;51.092;3.458;2023-06-26T16:38:11;24.00;99.90
21834;DHT22;11079;51.092;3.458;2023-06-26T16:40:37;24.00;99.90